• Join FlightAware (Why Join?)
  • Login
  • US Flag 
11:54PM EDT


 

Airport Tracker/Info


-or-


 

Live Flight TrackerFlight Track Log ✈ QJE6200 ✈ 06-Feb-2014 ✈ YPAD / ADL - YBBN / BNE

Flight Track Log - Related Links

Times and Time Zones

All times are in EST time to prevent confusion due to time zone crossing. See the QJE6200 flight status page for this flight to view local times or setup timezone preferences in your user account.

Time Position Orientation Groundspeed Altitude Reporting Facility
EST Latitude Longitude Course Direction KTS MPH feet Rate Location/Type
08:16PM -34.9457 138.5358 175° South 120 138  Level FlightAware ADS-B (YPAD / ADL)
08:16PM -34.9561 138.5206 230° Southwest 152 175 900 2,460 Climbing FlightAware ADS-B (YPAD / ADL)
08:17PM -34.9655 138.5067 231° Southwest 157 181 1,800 2,220 Climbing FlightAware ADS-B (YPAD / ADL)
08:17PM -34.9760 138.4912 230° Southwest 185 213 2,400 1,620 Climbing FlightAware ADS-B (YPAD / ADL)
08:17PM -34.9876 138.4738 231° Southwest 213 245 2,900 1,920 Climbing FlightAware ADS-B (YPAD / ADL)
08:18PM -35.0010 138.4540 230° Southwest 235 270 3,700 2,220 Climbing FlightAware ADS-B (YPAD / ADL)
08:18PM -35.0197 138.4321 224° Southwest 263 303 4,500 2,760 Climbing FlightAware ADS-B (YPAD / ADL)
08:18PM -35.0418 138.4255 194° South 259 298 5,600 3,420 Climbing FlightAware ADS-B (YPAD / ADL)
08:19PM -35.0662 138.4333 165° South 278 320 6,700 3,120 Climbing FlightAware ADS-B (YPAD / ADL)
08:19PM -35.0878 138.4530 143° Southeast 287 330 7,700 2,880 Climbing FlightAware ADS-B (YPAD / ADL)
08:19PM -35.0994 138.4694 131° Southeast 298 343 8,400 3,300 Climbing FlightAware ADS-B (YPAD / ADL)
08:19PM -35.1032 138.4800 114° Southeast 300 345 8,800 3,600 Climbing FlightAware ADS-B (YPAD / ADL)
08:20PM -35.1060 138.5021 99° East 308 354 9,600 2,640 Climbing FlightAware ADS-B (YPAD / ADL)
08:20PM -35.1021 138.5727 86° East 347 399 11,200 2,280 Climbing FlightAware ADS-B (YPAD / ADL)
08:21PM -35.0869 138.6209 69° East 370 426 12,100 2,700 Climbing FlightAware ADS-B (YPAD / ADL)
08:21PM -35.0620 138.6561 49° Northeast 368 423 13,300 3,420 Climbing FlightAware ADS-B (YPAD / ADL)
08:21PM -35.0385 138.6874 48° Northeast 374 430 14,400 3,420 Climbing FlightAware ADS-B (YPAD / ADL)
08:22PM -35.0144 138.7201 48° Northeast 372 428 15,600 3,240 Climbing FlightAware ADS-B (YPAD / ADL)
08:22PM -34.9680 138.7822 48° Northeast 387 445 17,600 2,940 Climbing FlightAware ADS-B (YPAD / ADL)
08:23PM -34.9346 138.8263 47° Northeast 391 450 19,000 3,000 Climbing FlightAware ADS-B (YPAD / ADL)
08:23PM -34.8931 138.8811 47° Northeast 387 445 20,700 2,700 Climbing FlightAware ADS-B (YPAD / ADL)
08:24PM -34.8480 138.9406 47° Northeast 402 463 22,200 2,220 Climbing FlightAware ADS-B (YPAD / ADL)
08:25PM -34.7797 139.0307 47° Northeast 422 486 24,100 2,220 Climbing FlightAware ADS-B (YPAD / ADL)
08:25PM -34.7374 139.0865 47° Northeast 429 494 25,300 2,040 Climbing FlightAware ADS-B (YPAD / ADL)
08:26PM -34.6987 139.1372 47° Northeast 438 504 26,200 1,740 Climbing FlightAware ADS-B (YPAD / ADL)
08:26PM -34.6536 139.1964 47° Northeast 448 516 27,100 1,560 Climbing FlightAware ADS-B (YPAD / ADL)
08:27PM -34.6017 139.2669 48° Northeast 464 534 28,000 1,380 Climbing FlightAware ADS-B (YPAD / ADL)
08:27PM -34.5755 139.3166 57° Northeast 464 534 28,500 1,500 Climbing FlightAware ADS-B (YPAD / ADL)
08:28PM -34.5468 139.4130 70° East 474 545 29,500 1,800 Climbing FlightAware ADS-B (YPAD / ADL)
08:29PM -34.5244 139.5185 76° East 470 541 30,900 1,920 Climbing FlightAware ADS-B (YPAD / ADL)
08:29PM -34.5049 139.6104 76° East 474 545 32,000 1,380 Climbing FlightAware ADS-B (YPAD / ADL)
08:30PM -34.4830 139.7143 76° East 485 558 32,700 1,380 Climbing FlightAware ADS-B (YPAD / ADL)
08:31PM -34.4598 139.8236 76° East 484 557 33,900 1,740 Climbing FlightAware ADS-B (YPAD / ADL)
08:31PM -34.4420 139.9065 75° East 478 550 34,900 1,380 Climbing FlightAware ADS-B (YPAD / ADL)
08:32PM -34.4193 140.0121 75° East 486 559 35,600 900 Climbing FlightAware ADS-B (YPAD / ADL)
08:32PM -34.4009 140.0969 75° East 495 570 36,000 780 Climbing FlightAware ADS-B (YPAD / ADL)
08:33PM -34.3772 140.2082 76° East 501 577 36,600 660 Climbing FlightAware ADS-B (YPAD / ADL)
08:34PM -34.3523 140.3204 75° East 500 575 37,000 300 Climbing FlightAware ADS-B (YPAD / ADL)
08:34PM -34.3316 140.4132 75° East 497 572 37,000  Level Aus ATC (RADAR)
08:34PM -34.3272 140.4340 75° East 499 574 37,000  Level FlightAware ADS-B (YPAD / ADL)
08:35PM -34.3053 140.5342 75° East 496 571 37,000  Level FlightAware ADS-B (YPAD / ADL)
08:36PM -34.2819 140.6411 75° East 496 571 37,000  Level FlightAware ADS-B (YPAD / ADL)
08:36PM -34.2582 140.7467 75° East 495 570 37,000  Level FlightAware ADS-B (YPAD / ADL)
08:37PM -34.2340 140.8553 75° East 492 566 37,000  Level FlightAware ADS-B (YPAD / ADL)
08:38PM -34.2104 140.9610 75° East 490 564 37,000  Level FlightAware ADS-B (YPAD / ADL)
08:39PM -34.1827 141.0840 75° East 488 562 37,000  Level FlightAware ADS-B (YPAD / ADL)
08:40PM -34.1286 141.3248 75° East 482 555 37,000  Level Aus ATC (RADAR)
08:41PM -34.1114 141.4035 75° East 483 556 37,000  Level Aus ATC (RADAR)
08:42PM -34.0588 141.6232 74° East 481 554 37,000  Level Aus ATC (RADAR)
08:42PM -34.0438 141.6880 74° East 482 555 37,000  Level Aus ATC (RADAR)
08:43PM -34.0254 141.7655 74° East 480 552 37,000  Level Aus ATC (RADAR)
08:44PM -33.9956 141.8945 74° East 479 551 37,000  Level Aus ATC (RADAR)
08:44PM -33.9805 141.9594 74° East 482 555 37,000  Level Aus ATC (RADAR)
08:45PM -33.9625 142.0365 74° East 479 551 37,000  Level Aus ATC (RADAR)
08:45PM -33.9356 142.1516 74° East 476 548 37,000  Level Aus ATC (RADAR)
08:47PM -33.8932 142.3317 74° East 481 554 37,000  Level Aus ATC (RADAR)
08:47PM -33.8780 142.3956 74° East 477 549 37,000  Level Aus ATC (RADAR)
08:47PM -33.8592 142.4721 74° East 477 549 37,000  Level Aus ATC (RADAR)
08:48PM -33.8381 142.5620 74° East 479 551 37,000  Level Aus ATC (RADAR)
08:49PM -33.8072 142.6624 70° East 480 552 37,000  Level Aus ATC (RADAR)
08:49PM -33.7817 142.7508 71° East 479 551 37,000  Level Aus ATC (RADAR)
08:50PM -33.7442 142.8760 70° East 476 548 37,000  Level Aus ATC (RADAR)
08:50PM -33.7328 142.9135 70° East 476 548 37,000  Level Aus ATC (RADAR)
08:52PM -33.6658 143.1376 70° East 473 544 37,000  Level Aus ATC (RADAR)
08:52PM -33.6437 143.2120 70° East 472 543 37,000  Level Aus ATC (RADAR)
08:53PM -33.6287 143.2614 70° East 472 543 37,000  Level Aus ATC (RADAR)
08:53PM -33.6023 143.3481 70° East 472 543 37,000  Level Aus ATC (RADAR)
08:54PM -33.5686 143.4591 70° East 470 541 37,000  Level Aus ATC (RADAR)
08:55PM -33.5422 143.5455 70° East 471 542 37,000  Level Aus ATC (RADAR)
08:55PM -33.5043 143.6698 70° East 474 545 37,000  Level Aus ATC (RADAR)
08:56PM -33.4856 143.7311 70° East 472 543 37,000  Level Aus ATC (RADAR)
08:57PM -33.4082 143.8965 61° Northeast 497 572 37,000  Level Aus ATC (RADAR)
08:57PM -33.3788 143.9510 57° Northeast 485 558 37,000  Level Aus ATC (RADAR)
08:58PM -33.3429 144.0183 57° Northeast 482 555 37,000  Level Aus ATC (RADAR)
08:59PM -33.2770 144.1389 57° Northeast 477 549 37,000  Level Aus ATC (RADAR)
08:59PM -33.2413 144.2032 56° Northeast 473 544 37,000  Level Aus ATC (RADAR)
09:00PM -33.2116 144.2573 57° Northeast 471 542 37,000  Level Aus ATC (RADAR)
09:09PM -32.5713 145.4165 247° West 483 556 37,000  Level Aus ATC (RADAR)
09:09PM -32.5183 145.5122 57° Northeast 459 528 37,000  Level Aus ATC (RADAR)
09:10PM -32.4706 145.5978 57° Northeast 462 532 37,000  Level Aus ATC (RADAR)
09:11PM -32.4186 145.6917 57° Northeast 457 526 37,000  Level Aus ATC (RADAR)
09:11PM -32.3879 145.7461 56° Northeast 461 531 37,000  Level Aus ATC (RADAR)
09:12PM -32.2952 145.9091 56° Northeast 470 541 37,000  Level Aus ATC (RADAR)
09:13PM -32.2706 145.9524 56° Northeast 471 542 37,000  Level Aus ATC (RADAR)
09:13PM -32.2274 146.0277 56° Northeast 471 542 37,000  Level Aus ATC (RADAR)
09:14PM -32.1655 146.1360 56° Northeast 472 543 37,000  Level Aus ATC (RADAR)
09:15PM -32.1230 146.2109 56° Northeast 470 541 37,000  Level Aus ATC (RADAR)
09:16PM -32.0600 146.3192 56° Northeast 473 544 37,000  Level Aus ATC (RADAR)
09:16PM -32.0380 146.3712 64° Northeast 382 440  Descending Aus ATC (RADAR)
09:17PM -31.9345 146.5381 54° Northeast 472 543 37,000 21,120 Climbing Aus ATC (RADAR)
09:18PM -31.8988 146.6011 56° Northeast 471 542 37,000  Level Aus ATC (RADAR)
09:18PM -31.8634 146.6646 57° Northeast 470 541 37,000  Level Aus ATC (RADAR)
09:19PM -31.8201 146.7390 56° Northeast 471 542 37,000  Level Aus ATC (RADAR)
09:20PM -31.7524 146.8558 56° Northeast 472 543 37,000  Level Aus ATC (RADAR)
09:20PM -31.7020 146.9410 55° Northeast 475 547 37,000  Level Aus ATC (RADAR)
09:21PM -31.6387 147.0478 55° Northeast 477 549 37,000  Level Aus ATC (RADAR)
09:23PM -31.5044 147.2669 54° Northeast 472 543 37,000  Level Aus ATC (RADAR)
09:23PM -31.4779 147.3068 52° Northeast 471 542 37,000  Level Aus ATC (RADAR)
09:24PM -31.4324 147.3762 52° Northeast 462 532 37,000  Level Aus ATC (RADAR)
09:25PM -31.3569 147.4901 52° Northeast 475 547 37,000  Level Aus ATC (RADAR)
09:25PM -31.3170 147.5495 52° Northeast 469 540 37,000  Level Aus ATC (RADAR)
09:26PM -31.2593 147.6365 52° Northeast 459 528 37,000  Level Aus ATC (RADAR)
09:27PM -31.2120 147.7085 52° Northeast 465 535 37,000  Level Aus ATC (RADAR)
09:29PM -31.0672 147.9251 52° Northeast 463 533 37,000  Level Aus ATC (RADAR)
09:29PM -31.0341 147.9737 52° Northeast 462 532 37,000  Level Aus ATC (RADAR)
09:30PM -30.9819 148.0517 52° Northeast 460 529 37,000  Level Aus ATC (RADAR)
09:30PM -30.9311 148.1274 52° Northeast 452 520 37,000  Level Aus ATC (RADAR)
09:31PM -30.8837 148.1974 52° Northeast 460 529 37,000  Level Aus ATC (RADAR)
09:32PM -30.8249 148.2848 52° Northeast 460 529 37,000  Level Aus ATC (RADAR)
09:32PM -30.7922 148.3332 52° Northeast 459 528 37,000  Level Aus ATC (RADAR)
09:33PM -30.6874 148.4885 52° Northeast 460 529 37,000 60 Level Aus ATC (RADAR)
09:34PM -30.6612 148.5270 52° Northeast 459 528 37,100 60 Climbing Aus ATC (RADAR)
09:34PM -30.6084 148.6041 51° Northeast 459 528 37,100 -120 Level Aus ATC (RADAR)
09:35PM -30.5439 148.6981 51° Northeast 450 518 37,000  Descending Aus ATC (RADAR)
09:36PM -30.4967 148.7677 52° Northeast 458 527 37,100 60 Climbing Aus ATC (RADAR)
09:37PM -30.4374 148.8537 51° Northeast 458 527 37,100  Level Aus ATC (RADAR)
09:37PM -30.4048 148.9019 52° Northeast 458 527 37,100  Level Aus ATC (RADAR)
09:39PM -30.2665 149.1025 51° Northeast 457 526 37,100  Level Aus ATC (RADAR)
09:39PM -30.2404 149.1405 52° Northeast 455 524 37,100  Level Aus ATC (RADAR)
09:40PM -30.1957 149.2051 51° Northeast 445 512 37,100  Level Aus ATC (RADAR)
09:40PM -30.1285 149.3015 51° Northeast 458 527 37,100  Level Aus ATC (RADAR)
09:41PM -30.0832 149.3672 51° Northeast 452 520 37,100  Level Aus ATC (RADAR)
09:42PM -30.0440 149.4240 51° Northeast 454 522 37,100  Level Aus ATC (RADAR)
09:42PM -29.9978 149.4893 51° Northeast 454 522 37,100  Level Aus ATC (RADAR)
09:43PM -29.9070 149.6203 51° Northeast 450 518 37,100  Level Aus ATC (RADAR)
09:44PM -29.8547 149.6951 51° Northeast 452 520 37,100  Level Aus ATC (RADAR)
09:45PM -29.8090 149.7601 51° Northeast 450 518 37,100  Level Aus ATC (RADAR)
09:45PM -29.7435 149.8529 51° Northeast 449 517 37,100  Level Aus ATC (RADAR)
09:46PM -29.7116 149.8987 51° Northeast 444 511 37,100  Level Aus ATC (RADAR)
09:46PM -29.6661 149.9633 51° Northeast 447 514 37,100  Level Aus ATC (RADAR)
09:47PM -29.6072 150.0472 51° Northeast 447 514 37,100  Level Aus ATC (RADAR)
09:48PM -29.5186 150.1796 52° Northeast 452 520 37,100  Level Aus ATC (RADAR)
09:49PM -29.4805 150.2654 63° Northeast 453 521 37,100  Level Aus ATC (RADAR)
09:49PM -29.4446 150.3389 61° Northeast 453 521 37,100  Level Aus ATC (RADAR)
09:50PM -29.3886 150.4552 61° Northeast 456 525 37,100  Level Aus ATC (RADAR)
09:51PM -29.3678 150.4978 61° Northeast 459 528 37,100  Level Aus ATC (RADAR)
09:51PM -29.3315 150.5734 61° Northeast 464 534 37,100  Level Aus ATC (RADAR)
09:52PM -29.2916 150.6559 61° Northeast 450 518 37,100 -120 Level Aus ATC (RADAR)
09:52PM -29.2609 150.7187 61° Northeast 467 537 37,000 -120 Descending FlightAware ADS-B (EKCH / CPH)
09:53PM -29.2196 150.8038 61° Northeast 467 537 37,000  Level FlightAware ADS-B (EKCH / CPH)
09:54PM -29.1763 150.8931 61° Northeast 466 536 37,000  Level FlightAware ADS-B (EKCH / CPH)
09:54PM -29.1348 150.9785 61° Northeast 463 533 37,000  Level FlightAware ADS-B (EKCH / CPH)
09:55PM -29.0951 151.0612 61° Northeast 440 506 37,000 60 Level FlightAware ADS-B (EKCH / CPH)
09:56PM -29.0593 151.1352 61° Northeast 435 501 37,100  Climbing Aus ATC (RADAR)
09:56PM -29.0225 151.2088 61° Northeast 438 504 37,000 -120 Descending FlightAware ADS-B (EKCH / CPH)
09:57PM -28.9778 151.2993 61° Northeast 433 498 37,000  Level FlightAware ADS-B (EKCH / CPH)
09:58PM -28.9386 151.3774 60° Northeast 435 501 37,000 -180 Level FlightAware ADS-B (EKCH / CPH)
09:58PM -28.8982 151.4594 61° Northeast 432 497 36,800 -1,020 Descending FlightAware ADS-B (EKCH / CPH)
09:59PM -28.8591 151.5402 61° Northeast 418 481 35,700 -1,740 Descending FlightAware ADS-B (EKCH / CPH)
10:00PM -28.8124 151.6053 51° Northeast 383 441 34,500 -1,500 Descending FlightAware ADS-B (EKCH / CPH)
10:00PM -28.7571 151.6492 35° Northeast 382 440 33,800 -900 Descending FlightAware ADS-B (EKCH / CPH)
10:01PM -28.6967 151.6954 34° Northeast 379 436 33,300 -780 Descending FlightAware ADS-B (EKCH / CPH)
10:02PM -28.6394 151.7387 34° Northeast 377 434 32,800 -720 Descending FlightAware ADS-B (EKCH / CPH)
10:02PM -28.5940 151.7728 34° Northeast 376 433 32,500 -780 Descending Aus ATC (RADAR)
10:02PM -28.5810 151.7822 34° Northeast 374 430 32,300 -900 Descending FlightAware ADS-B (EKCH / CPH)
10:03PM -28.5350 151.8165 33° Northeast 370 426 31,800 -780 Descending FlightAware ADS-B (EKCH / CPH)
10:04PM -28.4670 151.8667 33° Northeast 366 421 31,300 -780 Descending FlightAware ADS-B (EKCH / CPH)
10:04PM -28.4089 151.9095 33° Northeast 364 419 30,800 -780 Descending FlightAware ADS-B (EKCH / CPH)
10:05PM -28.3535 151.9506 33° Northeast 351 404 30,300 -780 Descending FlightAware ADS-B (EKCH / CPH)
10:06PM -28.2986 151.9911 33° Northeast 357 411 29,800 -780 Descending FlightAware ADS-B (EKCH / CPH)
10:06PM -28.2466 152.0297 33° Northeast 354 407 29,300 -780 Descending FlightAware ADS-B (EKCH / CPH)
10:07PM -28.1913 152.0707 33° Northeast 350 403 28,800 -780 Descending FlightAware ADS-B (EKCH / CPH)
10:08PM -28.1349 152.1118 33° Northeast 346 398 28,300 -780 Descending FlightAware ADS-B (EKCH / CPH)
10:08PM -28.0803 152.1462 29° Northeast 337 388 27,800 -720 Descending FlightAware ADS-B (EKCH / CPH)
10:09PM -28.0396 152.1726 29° Northeast 337 388 27,500 -780 Descending Aus ATC (RADAR)
10:09PM -28.0268 152.1804 29° Northeast 333 383 27,300 -840 Descending FlightAware ADS-B (EKCH / CPH)
10:10PM -27.9725 152.2143 29° Northeast 338 389 26,800 -840 Descending FlightAware ADS-B (EKCH / CPH)
10:10PM -27.9160 152.2492 29° Northeast 342 394 26,200 -1,200 Descending FlightAware ADS-B (EKCH / CPH)
10:11PM -27.8608 152.2841 29° Northeast 351 404 25,200 -1,620 Descending FlightAware ADS-B (EKCH / CPH)
10:12PM -27.8028 152.3204 29° Northeast 362 417 24,100 -1,620 Descending FlightAware ADS-B (EKCH / CPH)
10:12PM -27.7759 152.3424 36° Northeast 376 433 23,600 -1,680 Descending FlightAware ADS-B (EKCH / CPH)
10:12PM -27.7519 152.3727 48° Northeast 379 436 23,000 -1,500 Descending FlightAware ADS-B (EKCH / CPH)
10:13PM -27.7343 152.4075 60° Northeast 384 442 22,600 -1,500 Descending FlightAware ADS-B (EKCH / CPH)
10:13PM -27.7132 152.4809 72° East 375 432 21,500 -1,620 Descending FlightAware ADS-B (EKCH / CPH)
10:14PM -27.6929 152.5567 73° East 368 423 20,500 -1,620 Descending FlightAware ADS-B (EKCH / CPH)
10:15PM -27.6740 152.6284 73° East 359 413 19,400 -1,500 Descending FlightAware ADS-B (EKCH / CPH)
10:16PM -27.6498 152.7255 73° East 335 386 18,200 -1,500 Descending Aus ATC (RADAR)
10:16PM -27.6439 152.7413 73° East 338 389 17,800 -1,560 Descending FlightAware ADS-B (YTWB)
10:16PM -27.6324 152.7921 73° East 322 371 17,200 -1,500 Descending Aus ATC (RADAR)
10:16PM -27.6294 152.8010 73° East 335 386 16,900 -1,860 Descending FlightAware ADS-B (EKCH / CPH)
10:17PM -27.6133 152.8678 75° East 334 384 15,800 -1,680 Descending FlightAware ADS-B (EKCH / CPH)
10:18PM -27.6007 152.9178 74° East 329 379 15,000 -1,620 Descending FlightAware ADS-B (YENO)
10:18PM -27.5890 152.9646 74° East 316 364 14,200 -1,560 Descending FlightAware ADS-B (EKCH / CPH)
10:19PM -27.5761 153.0167 74° East 317 365 13,400 -1,620 Descending FlightAware ADS-B (YENO)
10:19PM -27.5663 153.0683 78° East 311 358 12,500 -1,620 Descending FlightAware ADS-B (YTWB)
10:20PM -27.5548 153.1231 77° East 302 348 11,600 -1,500 Descending FlightAware ADS-B (EKCH / CPH)
10:20PM -27.5504 153.1389 73° East 298 343 11,300 -1,800 Descending FlightAware ADS-B (YENO)
10:20PM -27.5456 153.1493 62° Northeast 296 341 11,000 -1,500 Descending FlightAware ADS-B (EKCH / CPH)
10:20PM -27.5332 153.1649 48° Northeast 295 339 10,800 -1,620 Descending FlightAware ADS-B (YENO)
10:21PM -27.5163 153.1775 33° Northeast 287 330 10,300 -1,860 Descending FlightAware ADS-B (YTWB)
10:21PM -27.4938 153.1922 30° Northeast 286 329 9,800 -1,620 Descending FlightAware ADS-B (YTWB)
10:21PM -27.4771 153.2035 31° Northeast 291 335 9,400 -1,560 Descending FlightAware ADS-B (EKCH / CPH)
10:21PM -27.4540 153.2190 31° Northeast 295 339 8,900 -1,680 Descending FlightAware ADS-B (EKCH / CPH)
10:22PM -27.4299 153.2347 30° Northeast 294 338 8,300 -1,800 Descending FlightAware ADS-B (EKCH / CPH)
10:22PM -27.4060 153.2503 30° Northeast 292 336 7,700 -1,680 Descending FlightAware ADS-B (EKCH / CPH)
10:22PM -27.3826 153.2655 30° Northeast 287 330 7,200 -1,500 Descending FlightAware ADS-B (EKCH / CPH)
10:23PM -27.3611 153.2803 31° Northeast 267 307 6,700 -1,680 Descending FlightAware ADS-B (EKCH / CPH)
10:23PM -27.3403 153.2943 31° Northeast 264 304 6,100 -1,380 Descending FlightAware ADS-B (EKCH / CPH)
10:23PM -27.3199 153.3068 29° Northeast 250 288 5,800 -900 Descending FlightAware ADS-B (EKCH / CPH)
10:24PM -27.2988 153.3197 28° Northeast 243 280 5,500 -780 Descending FlightAware ADS-B (EKCH / CPH)
10:24PM -27.2788 153.3300 25° Northeast 243 280 5,300 -780 Descending FlightAware ADS-B (EKCH / CPH)
10:24PM -27.2669 153.3315 North 246 283 5,100 -900 Descending FlightAware ADS-B (YENO)
10:24PM -27.2568 153.3289 347° North 244 281 5,000 -600 Descending FlightAware ADS-B (EKCH / CPH)
10:25PM -27.2453 153.3209 328° Northwest 242 278 4,900 -840 Descending FlightAware ADS-B (YENO)
10:25PM -27.2293 153.3066 322° Northwest 243 280 4,600 -1,080 Descending FlightAware ADS-B (YENO)
10:25PM -27.2130 153.2890 316° Northwest 235 270 4,200 -1,020 Descending FlightAware ADS-B (YENO)
10:25PM -27.2095 153.2790 292° West 223 257 4,100 -720 Descending FlightAware ADS-B (EKCH / CPH)
10:26PM -27.2089 153.2681 273° West 210 242 4,000 -780 Descending FlightAware ADS-B (YENO)
10:26PM -27.2109 153.2446 265° West 208 239 3,700 -840 Descending FlightAware ADS-B (YENO)
10:26PM -27.2123 153.2355 260° West 205 236 3,600 -900 Descending FlightAware ADS-B (EKCH / CPH)
10:26PM -27.2178 153.2258 238° Southwest 196 226 3,400 -900 Descending FlightAware ADS-B (YENO)
10:26PM -27.2240 153.2208 216° Southwest 189 217 3,300 -1,080 Descending FlightAware ADS-B (EKCH / CPH)
10:27PM -27.2388 153.2115 209° Southwest 182 209 2,900 -1,200 Descending FlightAware ADS-B (EKCH / CPH)
10:27PM -27.2540 153.2032 206° Southwest 169 194 2,500 -900 Descending FlightAware ADS-B (EKCH / CPH)
10:27PM -27.2674 153.1956 207° Southwest 160 184 2,300 -780 Descending FlightAware ADS-B (EKCH / CPH)
10:28PM -27.2806 153.1881 207° Southwest 163 188 2,000 -900 Descending FlightAware ADS-B (EKCH / CPH)
10:28PM -27.2934 153.1808 207° Southwest 161 185 1,700 -780 Descending FlightAware ADS-B (EKCH / CPH)
10:28PM -27.3075 153.1728 207° Southwest 152 175 1,500 -780 Descending FlightAware ADS-B (EKCH / CPH)
10:29PM -27.3188 153.1663 207° Southwest 127 146 1,200 -780 Descending FlightAware ADS-B (EKCH / CPH)
10:29PM -27.3289 153.1604 207° Southwest 122 140 1,000 -600 Descending FlightAware ADS-B (EKCH / CPH)
10:29PM -27.3387 153.1549 207° Southwest 120 138 800 -600 Descending FlightAware ADS-B (EKCH / CPH)
10:30PM -27.3489 153.1490 207° Southwest 123 142 600 -600 Descending FlightAware ADS-B (EKCH / CPH)
10:30PM -27.3593 153.1431 207° Southwest 126 145 400 -780 Descending FlightAware ADS-B (EKCH / CPH)
10:30PM -27.3687 153.1378 207° Southwest 127 146 100 -900 Descending FlightAware ADS-B (EKCH / CPH)
10:31PM -27.3782 153.1324 207° Southwest 127 146 -360 Descending FlightAware ADS-B (YENO)